createdAt,value
2022-11-19T00:01:48.654Z,2.57
2022-11-19T00:04:50.059Z,2.27
2022-11-19T00:07:52.469Z,2.60
2022-11-19T00:10:53.862Z,2.27
2022-11-19T00:13:55.248Z,2.50
2022-11-19T00:16:56.627Z,2.30
2022-11-19T00:19:58.020Z,2.90
2022-11-19T00:23:00.295Z,2.40
2022-11-19T00:26:05.723Z,2.47
2022-11-19T00:29:07.130Z,2.70
2022-11-19T00:32:08.554Z,2.43
2022-11-19T00:35:10.117Z,2.70
2022-11-19T00:38:11.553Z,2.90
2022-11-19T00:41:12.977Z,3.10
2022-11-19T00:44:14.485Z,2.80
2022-11-19T00:47:16.759Z,2.97
2022-11-19T00:50:18.348Z,3.40
2022-11-19T00:53:19.733Z,2.83
2022-11-19T00:56:23.995Z,2.93
2022-11-19T00:59:25.410Z,2.90
2022-11-19T01:02:26.782Z,2.73
2022-11-19T01:05:28.192Z,3.27
2022-11-19T01:08:30.248Z,2.87
2022-11-19T01:11:33.745Z,3.03
2022-11-19T01:14:35.133Z,3.17
2022-11-19T01:17:36.528Z,3.30
2022-11-19T01:20:37.987Z,3.53
2022-11-19T01:23:41.047Z,3.30
2022-11-19T01:26:45.706Z,3.37
2022-11-19T01:29:47.896Z,3.40
2022-11-19T01:32:49.284Z,3.30
2022-11-19T01:36:02.440Z,3.60
2022-11-19T01:39:06.276Z,3.30
2022-11-19T01:42:39.776Z,3.60
2022-11-19T01:45:44.516Z,3.40
2022-11-19T01:48:57.339Z,4.10
2022-11-19T01:52:02.674Z,3.73
2022-11-19T01:55:04.370Z,3.97
2022-11-19T01:58:07.109Z,4.10
2022-11-19T02:01:10.480Z,4.33
2022-11-19T02:04:14.764Z,3.47
2022-11-19T02:07:18.658Z,3.37
2022-11-19T02:10:26.746Z,4.07
2022-11-19T02:13:48.957Z,3.87
2022-11-19T02:17:16.800Z,4.27
2022-11-19T02:20:26.890Z,3.70
2022-11-19T02:24:09.547Z,3.63
2022-11-19T02:27:32.870Z,4.20
2022-11-19T02:30:41.960Z,4.10
2022-11-19T02:33:54.544Z,3.40
2022-11-19T02:37:16.224Z,4.17
2022-11-19T02:40:28.309Z,3.40
2022-11-19T02:43:36.412Z,3.60
2022-11-19T02:46:38.433Z,3.63
2022-11-19T02:49:44.296Z,3.27
2022-11-19T02:52:46.901Z,3.47
2022-11-19T02:56:06.953Z,3.70
2022-11-19T02:59:26.888Z,3.60
2022-11-19T03:02:54.195Z,3.20
2022-11-19T03:06:04.486Z,3.80
2022-11-19T03:09:05.902Z,3.67
2022-11-19T03:12:20.470Z,3.93
2022-11-19T03:15:50.583Z,3.13
2022-11-19T03:19:19.788Z,3.23
2022-11-19T03:22:26.832Z,3.43
2022-11-19T03:25:53.178Z,3.60
2022-11-19T03:28:58.193Z,3.10
2022-11-19T03:32:06.916Z,3.30
2022-11-19T03:35:14.320Z,3.47
2022-11-19T03:38:26.473Z,3.47
2022-11-19T03:41:29.588Z,3.80
2022-11-19T03:44:39.901Z,4.37
2022-11-19T03:47:43.187Z,3.90
2022-11-19T03:51:03.497Z,3.77
2022-11-19T03:54:05.001Z,3.93
2022-11-19T03:57:09.150Z,4.17
2022-11-19T04:00:11.373Z,4.30
2022-11-19T04:03:16.536Z,4.30
2022-11-19T04:06:17.949Z,4.53
2022-11-19T04:09:19.497Z,4.50
2022-11-19T04:12:24.223Z,5.03
2022-11-19T04:15:25.947Z,5.20
2022-11-19T04:18:27.419Z,5.63
2022-11-19T04:21:28.865Z,5.70
2022-11-19T04:24:30.461Z,4.97
2022-11-19T04:27:31.984Z,5.50
2022-11-19T04:30:33.477Z,5.73
2022-11-19T04:33:34.884Z,5.50
2022-11-19T04:36:36.448Z,4.77
2022-11-19T04:39:38.118Z,5.10
2022-11-19T04:42:39.798Z,5.30
2022-11-19T04:45:41.190Z,5.17
2022-11-19T04:48:42.605Z,5.10
2022-11-19T04:51:44.147Z,5.33
2022-11-19T04:54:45.712Z,4.70
2022-11-19T04:57:47.168Z,5.07
2022-11-19T05:00:48.885Z,4.90
2022-11-19T05:03:50.642Z,4.60
2022-11-19T05:06:52.071Z,5.23
2022-11-19T05:09:53.462Z,4.23
2022-11-19T05:12:54.869Z,5.30
2022-11-19T05:15:56.297Z,4.90
2022-11-19T05:18:57.764Z,5.03
2022-11-19T05:21:59.163Z,4.70
2022-11-19T05:25:00.556Z,4.80
2022-11-19T05:28:01.995Z,4.73
2022-11-19T05:31:04.098Z,4.70
2022-11-19T05:34:05.653Z,5.20
2022-11-19T05:37:07.040Z,4.53
2022-11-19T05:40:08.883Z,4.80
2022-11-19T05:43:10.281Z,4.90
2022-11-19T05:46:11.669Z,4.83
2022-11-19T05:49:13.110Z,4.70
2022-11-19T05:52:14.509Z,4.60
2022-11-19T05:55:16.796Z,4.63
2022-11-19T05:58:18.256Z,4.77
2022-11-19T06:01:27.946Z,4.20
2022-11-19T06:04:29.357Z,4.47
2022-11-19T06:07:31.000Z,5.00
2022-11-19T06:10:32.666Z,4.40
2022-11-19T06:13:34.102Z,4.77
2022-11-19T06:16:35.483Z,4.60
2022-11-19T06:19:36.969Z,4.60
2022-11-19T06:22:38.814Z,4.80
2022-11-19T06:25:40.274Z,4.13
2022-11-19T06:28:41.654Z,4.10
2022-11-19T06:31:43.512Z,5.00
2022-11-19T06:34:44.890Z,4.50
2022-11-19T06:37:46.306Z,4.40
2022-11-19T06:40:48.243Z,3.77
2022-11-19T06:43:49.744Z,4.20
2022-11-19T06:46:51.205Z,4.13
2022-11-19T06:49:52.624Z,4.10
2022-11-19T06:52:54.009Z,4.03
2022-11-19T06:56:03.368Z,3.93
2022-11-19T06:59:04.749Z,4.10
2022-11-19T07:02:07.286Z,4.17
2022-11-19T07:05:08.951Z,4.33
2022-11-19T07:08:10.361Z,3.90
2022-11-19T07:11:26.764Z,4.03
2022-11-19T07:14:28.187Z,4.40
2022-11-19T07:17:29.672Z,4.20
2022-11-19T07:20:31.104Z,3.97
2022-11-19T07:23:32.486Z,4.30
2022-11-19T07:26:35.138Z,4.10
2022-11-19T07:29:36.772Z,4.70
2022-11-19T07:32:38.164Z,4.20
2022-11-19T07:35:39.704Z,4.27
2022-11-19T07:38:41.100Z,17.33
2022-11-19T07:42:01.478Z,4.93
2022-11-19T07:45:03.149Z,4.43
2022-11-19T07:48:04.672Z,4.33
2022-11-19T07:51:06.196Z,4.27
2022-11-19T07:54:09.233Z,4.17
2022-11-19T07:57:11.905Z,3.87
2022-11-19T08:00:13.852Z,5.00
2022-11-19T08:03:15.289Z,4.00
2022-11-19T08:06:18.539Z,3.80
2022-11-19T08:09:20.276Z,4.50
2022-11-19T08:12:21.951Z,5.33
2022-11-19T08:15:23.336Z,5.17
2022-11-19T08:18:29.882Z,4.80
2022-11-19T08:21:32.588Z,5.03
2022-11-19T08:24:34.004Z,4.83
2022-11-19T08:27:35.450Z,5.00
2022-11-19T08:30:39.782Z,7.30
2022-11-19T08:33:41.264Z,7.20
2022-11-19T08:36:43.271Z,4.13
2022-11-19T08:39:44.647Z,4.23
2022-11-19T08:43:00.894Z,4.00
2022-11-19T08:46:02.287Z,4.03
2022-11-19T08:49:03.965Z,4.47
2022-11-19T08:52:05.378Z,3.97
2022-11-19T08:55:08.193Z,4.90
2022-11-19T08:58:11.328Z,4.33
2022-11-19T09:01:15.347Z,4.53
2022-11-19T09:04:17.453Z,4.07
2022-11-19T09:07:19.260Z,4.50
2022-11-19T09:10:20.757Z,4.60
2022-11-19T09:13:22.296Z,4.30
2022-11-19T09:16:23.679Z,4.10
2022-11-19T09:19:25.140Z,4.57
2022-11-19T09:22:26.740Z,5.30
2022-11-19T09:25:29.163Z,4.57
2022-11-19T09:28:31.089Z,4.57
2022-11-19T09:31:32.512Z,5.50
2022-11-19T09:34:35.129Z,4.77
2022-11-19T09:37:36.620Z,4.83
2022-11-19T09:40:38.067Z,4.60
2022-11-19T09:44:22.653Z,4.87
2022-11-19T09:47:46.134Z,4.93
2022-11-19T09:50:51.927Z,4.50
2022-11-19T09:54:05.808Z,5.30
2022-11-19T09:57:13.613Z,5.27
2022-11-19T10:00:20.536Z,5.87
2022-11-19T10:03:27.399Z,5.50
2022-11-19T10:06:54.508Z,4.80
2022-11-19T10:10:17.616Z,5.33
2022-11-19T10:13:37.452Z,5.20
2022-11-19T10:17:24.073Z,5.07
2022-11-19T10:20:42.648Z,4.77
2022-11-19T10:24:08.199Z,4.53
2022-11-19T10:27:23.058Z,4.83
2022-11-19T10:30:28.326Z,4.73
2022-11-19T10:33:37.263Z,5.53
2022-11-19T10:36:49.811Z,6.23
2022-11-19T10:40:02.514Z,5.60
2022-11-19T10:43:23.430Z,5.83
2022-11-19T10:46:26.111Z,6.30
2022-11-19T10:49:27.533Z,5.70
2022-11-19T10:52:33.951Z,7.10
2022-11-19T10:55:39.474Z,5.37
2022-11-19T10:59:01.080Z,4.90
2022-11-19T11:02:28.132Z,7.70
2022-11-19T11:05:31.258Z,8.20
2022-11-19T11:08:33.894Z,8.60
2022-11-19T11:11:54.236Z,8.03
2022-11-19T11:15:00.763Z,6.50
2022-11-19T11:18:03.503Z,6.53
2022-11-19T11:21:05.184Z,7.33
2022-11-19T11:24:07.453Z,7.83
2022-11-19T11:27:30.845Z,8.53
2022-11-19T11:30:32.511Z,9.27
2022-11-19T11:33:38.424Z,9.53
2022-11-19T11:36:40.108Z,10.33
2022-11-19T11:39:44.589Z,12.33
2022-11-19T11:42:46.279Z,12.50
2022-11-19T11:45:56.935Z,12.40
2022-11-19T11:49:04.802Z,10.97
2022-11-19T11:52:11.327Z,10.63
2022-11-19T11:55:14.722Z,10.23
2022-11-19T11:58:34.295Z,8.47
2022-11-19T12:01:37.108Z,8.63
2022-11-19T12:04:38.768Z,7.50
2022-11-19T12:08:04.761Z,6.80
2022-11-19T12:11:28.186Z,7.10
2022-11-19T12:14:44.808Z,5.63
2022-11-19T12:17:55.866Z,5.40
2022-11-19T12:21:29.553Z,5.53
2022-11-19T12:24:37.086Z,6.10
2022-11-19T12:27:51.704Z,5.90
2022-11-19T12:31:20.996Z,5.80
2022-11-19T12:34:56.683Z,5.60
2022-11-19T12:38:17.029Z,5.87
2022-11-19T12:41:31.521Z,4.60
2022-11-19T12:44:45.671Z,4.87
2022-11-19T12:47:58.918Z,5.33
2022-11-19T12:51:09.882Z,4.60
2022-11-19T12:54:35.756Z,4.50
2022-11-19T12:58:01.766Z,4.97
2022-11-19T13:01:16.577Z,4.67
2022-11-19T13:04:32.095Z,5.87
2022-11-19T13:07:38.783Z,6.13
2022-11-19T13:10:45.143Z,7.50
2022-11-19T13:13:52.609Z,8.20
2022-11-19T13:16:55.787Z,8.07
2022-11-19T13:20:23.742Z,7.90
2022-11-19T13:23:35.371Z,7.93
2022-11-19T13:26:37.340Z,7.10
2022-11-19T13:29:53.863Z,6.87
2022-11-19T13:33:14.075Z,7.87
2022-11-19T13:36:22.554Z,8.00
2022-11-19T13:39:58.261Z,7.67
2022-11-19T13:43:34.418Z,7.90
2022-11-19T13:46:44.596Z,8.37
2022-11-19T13:50:00.625Z,7.43
2022-11-19T13:53:07.537Z,7.47
2022-11-19T13:56:14.432Z,6.77
2022-11-19T13:59:43.206Z,5.30
2022-11-19T14:03:07.917Z,4.73
2022-11-19T14:06:39.139Z,4.17
2022-11-19T14:09:45.316Z,4.80
2022-11-19T14:12:58.513Z,4.87
2022-11-19T14:16:54.309Z,4.67
2022-11-19T14:20:15.665Z,4.67
2022-11-19T14:23:54.931Z,3.77
2022-11-19T14:27:24.074Z,4.10
2022-11-19T14:31:01.992Z,4.83
2022-11-19T14:34:04.319Z,5.17
2022-11-19T14:37:18.961Z,4.47
2022-11-19T14:40:32.751Z,3.30
2022-11-19T14:44:08.409Z,4.00
2022-11-19T14:47:21.705Z,3.47
2022-11-19T14:50:28.829Z,3.10
2022-11-19T14:53:30.348Z,3.17
2022-11-19T14:56:34.618Z,3.40
2022-11-19T14:59:38.228Z,3.23
2022-11-19T15:02:46.068Z,3.50
2022-11-19T15:05:47.935Z,3.57
2022-11-19T15:08:52.417Z,3.30
2022-11-19T15:11:56.901Z,3.17
2022-11-19T15:15:20.836Z,4.00
2022-11-19T15:18:37.217Z,3.60
2022-11-19T15:21:57.600Z,3.80
2022-11-19T15:25:22.266Z,3.80
2022-11-19T15:28:53.833Z,3.77
2022-11-19T15:32:01.113Z,3.40
2022-11-19T15:35:24.248Z,3.53
2022-11-19T15:38:52.384Z,4.13
2022-11-19T15:42:01.099Z,6.20
2022-11-19T15:45:11.515Z,5.37
2022-11-19T15:48:19.419Z,4.50
2022-11-19T15:51:22.799Z,4.57
2022-11-19T15:54:32.803Z,3.77
2022-11-19T15:57:34.606Z,3.50
2022-11-19T16:00:48.352Z,3.80
2022-11-19T16:03:53.336Z,4.07
2022-11-19T16:06:55.783Z,3.60
2022-11-19T16:09:58.883Z,3.60
2022-11-19T16:13:21.043Z,3.43
2022-11-19T16:16:44.811Z,3.33
2022-11-19T16:20:14.191Z,3.50
2022-11-19T16:23:20.931Z,3.93
2022-11-19T16:26:22.559Z,3.97
2022-11-19T16:29:25.978Z,5.33
2022-11-19T16:32:27.739Z,5.43
2022-11-19T16:35:32.360Z,5.00
2022-11-19T16:38:33.911Z,4.13
2022-11-19T16:41:54.123Z,3.97
2022-11-19T16:45:04.872Z,4.77
2022-11-19T16:48:08.143Z,4.07
2022-11-19T16:51:33.263Z,3.57
2022-11-19T16:54:45.772Z,3.80
2022-11-19T16:57:49.373Z,3.93
2022-11-19T17:00:55.379Z,3.10
2022-11-19T17:04:03.976Z,4.10
2022-11-19T17:07:14.426Z,4.43
2022-11-19T17:10:30.126Z,4.03
2022-11-19T17:13:32.314Z,4.80
2022-11-19T17:16:35.217Z,5.10
2022-11-19T17:19:36.932Z,5.43
2022-11-19T17:22:39.763Z,6.60
2022-11-19T17:25:49.516Z,5.80
2022-11-19T17:28:54.612Z,6.13
2022-11-19T17:31:56.516Z,7.03
2022-11-19T17:34:58.111Z,7.00
2022-11-19T17:38:09.733Z,6.97
2022-11-19T17:41:15.264Z,6.60
2022-11-19T17:44:31.560Z,7.40
2022-11-19T17:47:32.975Z,6.50
2022-11-19T17:50:34.360Z,7.50
2022-11-19T17:53:35.767Z,7.30
2022-11-19T17:56:37.182Z,7.60
2022-11-19T17:59:38.588Z,8.00
2022-11-19T18:02:40.002Z,7.87
2022-11-19T18:05:46.250Z,6.63
2022-11-19T18:08:47.722Z,6.90
2022-11-19T18:11:49.099Z,7.00
2022-11-19T18:14:50.571Z,6.87
2022-11-19T18:17:52.071Z,5.70
2022-11-19T18:20:57.618Z,5.80
2022-11-19T18:24:02.300Z,5.27
2022-11-19T18:27:03.740Z,5.87
2022-11-19T18:30:05.696Z,5.47
2022-11-19T18:33:09.228Z,5.03
2022-11-19T18:36:10.927Z,5.13
2022-11-19T18:39:12.650Z,4.93
2022-11-19T18:42:14.173Z,5.00
2022-11-19T18:45:15.645Z,4.90
2022-11-19T18:48:17.134Z,5.10
2022-11-19T18:51:18.632Z,5.50
2022-11-19T18:54:20.190Z,5.60
2022-11-19T18:57:22.425Z,6.87
2022-11-19T19:00:23.902Z,5.90
2022-11-19T19:03:25.388Z,6.10
2022-11-19T19:06:26.790Z,5.97
2022-11-19T19:09:28.239Z,5.40
2022-11-19T19:12:29.695Z,5.43
2022-11-19T19:15:31.076Z,5.60
2022-11-19T19:18:32.448Z,5.20
2022-11-19T19:21:33.862Z,6.43
2022-11-19T19:24:35.268Z,5.20
2022-11-19T19:27:36.653Z,5.27
2022-11-19T19:30:38.356Z,5.53
2022-11-19T19:33:39.822Z,5.07
2022-11-19T19:36:41.508Z,5.33
2022-11-19T19:39:42.887Z,5.03
2022-11-19T19:42:44.329Z,5.30
2022-11-19T19:45:45.868Z,5.80
2022-11-19T19:48:50.239Z,7.37
2022-11-19T19:51:51.640Z,6.80
2022-11-19T19:54:53.059Z,6.90
2022-11-19T19:57:55.097Z,7.00
2022-11-19T20:01:05.863Z,6.23
2022-11-19T20:04:10.179Z,6.80
2022-11-19T20:07:11.605Z,6.50
2022-11-19T20:10:13.053Z,6.40
2022-11-19T20:13:31.851Z,6.93
2022-11-19T20:16:34.910Z,6.23
2022-11-19T20:19:36.551Z,6.10
2022-11-19T20:22:37.967Z,6.10
2022-11-19T20:25:39.484Z,6.63
2022-11-19T20:28:41.429Z,7.13
2022-11-19T20:31:47.803Z,6.40
2022-11-19T20:34:49.232Z,7.40
2022-11-19T20:37:50.639Z,6.10
2022-11-19T20:41:03.563Z,5.70
2022-11-19T20:44:21.696Z,6.10
2022-11-19T20:47:23.503Z,6.67
2022-11-19T20:50:24.911Z,7.10
2022-11-19T20:53:26.861Z,7.93
2022-11-19T20:56:28.243Z,7.63
2022-11-19T20:59:30.690Z,9.00
2022-11-19T21:02:32.336Z,7.90
2022-11-19T21:05:33.897Z,7.70
2022-11-19T21:08:36.100Z,6.60
2022-11-19T21:11:38.245Z,7.10
2022-11-19T21:14:39.760Z,8.07
2022-11-19T21:17:41.167Z,7.97
2022-11-19T21:20:42.609Z,7.93
2022-11-19T21:23:44.506Z,7.03
2022-11-19T21:26:46.005Z,6.70
2022-11-19T21:29:47.397Z,6.83
2022-11-19T21:32:48.827Z,6.27
2022-11-19T21:35:50.239Z,6.27
2022-11-19T21:38:51.647Z,7.30
2022-11-19T21:41:53.077Z,7.67
2022-11-19T21:44:54.459Z,7.80
2022-11-19T21:47:55.892Z,7.77
2022-11-19T21:50:57.350Z,7.37
2022-11-19T21:53:59.542Z,7.70
2022-11-19T21:57:00.993Z,7.53
2022-11-19T22:00:02.375Z,7.43
2022-11-19T22:03:04.951Z,6.87
2022-11-19T22:06:08.873Z,6.97
2022-11-19T22:09:10.246Z,6.57
2022-11-19T22:12:11.654Z,6.63
2022-11-19T22:15:13.130Z,7.33
2022-11-19T22:18:14.620Z,7.47
2022-11-19T22:21:16.057Z,7.50
2022-11-19T22:24:18.083Z,7.67
2022-11-19T22:27:19.524Z,7.70
2022-11-19T22:30:20.933Z,7.77
2022-11-19T22:33:22.335Z,7.33
2022-11-19T22:36:23.943Z,7.37
2022-11-19T22:39:25.777Z,10.93
2022-11-19T22:42:27.249Z,9.00
2022-11-19T22:45:28.639Z,9.60
2022-11-19T22:48:31.583Z,8.77
2022-11-19T22:51:33.086Z,8.50
2022-11-19T22:54:40.139Z,7.67
2022-11-19T22:57:42.991Z,9.23
2022-11-19T23:00:47.301Z,11.33
2022-11-19T23:03:49.521Z,9.27
2022-11-19T23:06:50.898Z,8.40
2022-11-19T23:09:52.344Z,7.60
2022-11-19T23:13:12.132Z,7.33
2022-11-19T23:16:14.989Z,8.03
2022-11-19T23:19:19.198Z,7.20
2022-11-19T23:22:20.955Z,6.87
2022-11-19T23:25:22.646Z,7.20
2022-11-19T23:28:29.368Z,7.23
2022-11-19T23:31:35.942Z,7.57
2022-11-19T23:34:37.361Z,7.53
2022-11-19T23:37:38.768Z,7.17
2022-11-19T23:40:40.225Z,7.03
2022-11-19T23:43:42.138Z,6.90
2022-11-19T23:46:43.622Z,6.60
2022-11-19T23:49:45.010Z,6.93
2022-11-19T23:52:46.552Z,6.20
2022-11-19T23:55:47.928Z,6.27
2022-11-19T23:58:49.741Z,6.40
